createdAt,value
2017-03-04T00:00:46.347Z,4.24
2017-03-04T00:01:59.419Z,4.25
2017-03-04T00:03:12.092Z,4.32
2017-03-04T00:04:24.750Z,4.28
2017-03-04T00:05:37.801Z,4.24
2017-03-04T00:06:50.873Z,4.3
2017-03-04T00:08:03.187Z,4.34
2017-03-04T00:09:16.265Z,4.3
2017-03-04T00:10:29.359Z,4.3
2017-03-04T00:11:42.411Z,4.25
2017-03-04T00:12:55.730Z,4.28
2017-03-04T00:14:08.427Z,4.31
2017-03-04T00:15:21.485Z,4.28
2017-03-04T00:16:34.585Z,4.2
2017-03-04T00:17:47.641Z,4.28
2017-03-04T00:19:00.334Z,4.27
2017-03-04T00:20:13.401Z,4.3
2017-03-04T00:21:26.475Z,4.28
2017-03-04T00:22:39.543Z,4.24
2017-03-04T00:23:52.617Z,4.3
2017-03-04T00:25:05.763Z,4.24
2017-03-04T00:26:18.827Z,4.31
2017-03-04T00:27:31.929Z,4.24
2017-03-04T00:28:45.001Z,4.24
2017-03-04T00:29:58.294Z,4.24
2017-03-04T00:31:11.014Z,4.34
2017-03-04T00:32:24.136Z,4.22
2017-03-04T00:33:37.180Z,4.18
2017-03-04T00:34:50.278Z,4.25
2017-03-04T00:36:02.926Z,4.24
2017-03-04T00:37:16.019Z,4.25
2017-03-04T00:38:29.094Z,4.28
2017-03-04T00:39:42.110Z,4.22
2017-03-04T00:40:55.161Z,4.28
2017-03-04T00:42:08.182Z,4.2
2017-03-04T00:43:21.240Z,4.25
2017-03-04T00:44:34.349Z,4.25
2017-03-04T00:45:47.682Z,4.22
2017-03-04T00:47:00.778Z,4.21
2017-03-04T00:48:13.828Z,4.22
2017-03-04T00:49:26.877Z,4.27
2017-03-04T00:50:39.955Z,4.21
2017-03-04T00:51:53.040Z,4.14
2017-03-04T00:53:06.124Z,4.22
2017-03-04T00:54:19.168Z,4.16
2017-03-04T00:55:31.839Z,4.21
2017-03-04T00:56:44.902Z,4.24
2017-03-04T00:57:57.969Z,4.1
2017-03-04T00:59:11.048Z,4.09
2017-03-04T01:00:24.090Z,4.18
2017-03-04T01:01:37.144Z,4.21
2017-03-04T01:02:50.183Z,4.14
2017-03-04T01:04:03.250Z,4.13
2017-03-04T01:05:16.324Z,4.06
2017-03-04T01:06:29.416Z,4.16
2017-03-04T01:07:42.494Z,4.04
2017-03-04T01:08:55.537Z,4.04
2017-03-04T01:10:08.582Z,4.03
2017-03-04T01:11:21.652Z,4.03
2017-03-04T01:12:34.747Z,4.09
2017-03-04T01:13:47.444Z,4.13
2017-03-04T01:15:00.498Z,4.1
2017-03-04T01:16:13.211Z,4.09
2017-03-04T01:17:26.304Z,4.04
2017-03-04T01:18:39.388Z,4.03
2017-03-04T01:19:52.441Z,4.02
2017-03-04T01:21:05.527Z,3.96
2017-03-04T01:22:18.641Z,4.03
2017-03-04T01:23:31.315Z,3.94
2017-03-04T01:24:44.386Z,3.92
2017-03-04T01:25:57.445Z,3.95
2017-03-04T01:27:10.145Z,3.92
2017-03-04T01:28:23.270Z,3.88
2017-03-04T01:29:36.337Z,3.84
2017-03-04T01:30:49.396Z,3.86
2017-03-04T01:32:02.437Z,3.84
2017-03-04T01:33:14.746Z,3.86
2017-03-04T01:34:27.830Z,3.84
2017-03-04T01:35:40.900Z,3.81
2017-03-04T01:36:53.966Z,3.84
2017-03-04T01:38:07.018Z,3.81
2017-03-04T01:39:19.714Z,3.81
2017-03-04T01:40:32.755Z,3.76
2017-03-04T01:41:45.829Z,3.81
2017-03-04T01:42:58.904Z,3.76
2017-03-04T01:44:11.613Z,3.74
2017-03-04T01:45:24.917Z,3.68
2017-03-04T01:46:37.984Z,3.67
2017-03-04T01:47:51.057Z,3.7
2017-03-04T01:49:04.105Z,3.73
2017-03-04T01:50:16.791Z,3.76
2017-03-04T01:51:29.888Z,3.76
2017-03-04T01:52:43.012Z,3.64
2017-03-04T01:53:56.113Z,3.67
2017-03-04T01:55:09.189Z,3.66
2017-03-04T01:56:22.243Z,3.58
2017-03-04T01:57:35.306Z,3.67
2017-03-04T01:58:48.367Z,3.61
2017-03-04T02:00:01.432Z,3.63
2017-03-04T02:01:13.708Z,3.64
2017-03-04T02:02:26.784Z,3.66
2017-03-04T02:03:39.871Z,3.59
2017-03-04T02:04:53.016Z,3.66
2017-03-04T02:06:06.096Z,3.52
2017-03-04T02:07:19.164Z,3.53
2017-03-04T02:08:32.237Z,3.59
2017-03-04T02:09:45.279Z,3.49
2017-03-04T02:10:58.329Z,3.58
2017-03-04T02:12:11.439Z,3.59
2017-03-04T02:13:24.513Z,3.58
2017-03-04T02:14:37.596Z,3.55
2017-03-04T02:15:50.641Z,3.52
2017-03-04T02:17:03.697Z,3.52
2017-03-04T02:18:16.375Z,3.53
2017-03-04T02:19:29.477Z,3.55
2017-03-04T02:20:42.520Z,3.46
2017-03-04T02:21:55.637Z,3.5
2017-03-04T02:23:08.701Z,3.46
2017-03-04T02:24:21.771Z,3.53
2017-03-04T02:25:34.843Z,3.49
2017-03-04T02:26:47.892Z,3.48
2017-03-04T02:28:01.035Z,3.48
2017-03-04T02:29:14.355Z,3.49
2017-03-04T02:30:27.476Z,3.56
2017-03-04T02:31:40.549Z,3.48
2017-03-04T02:32:53.601Z,3.55
2017-03-04T02:34:06.642Z,3.49
2017-03-04T02:35:19.696Z,3.48
2017-03-04T02:36:32.380Z,3.52
2017-03-04T02:37:45.452Z,3.52
2017-03-04T02:38:58.538Z,3.53
2017-03-04T02:40:11.606Z,3.49
2017-03-04T02:41:24.678Z,3.53
2017-03-04T02:42:37.748Z,3.49
2017-03-04T02:43:50.823Z,3.52
2017-03-04T02:45:03.888Z,3.5
2017-03-04T02:46:17.280Z,3.48
2017-03-04T02:47:30.371Z,3.5
2017-03-04T02:48:43.427Z,3.49
2017-03-04T02:49:56.510Z,3.49
2017-03-04T02:51:09.545Z,3.46
2017-03-04T02:52:22.587Z,3.4
2017-03-04T02:53:35.708Z,3.49
2017-03-04T02:54:48.827Z,3.43
2017-03-04T02:56:01.930Z,3.43
2017-03-04T02:57:14.999Z,3.37
2017-03-04T02:58:28.085Z,3.36
2017-03-04T02:59:41.159Z,3.45
2017-03-04T03:00:53.856Z,3.43
2017-03-04T03:02:06.956Z,3.46
2017-03-04T03:03:20.025Z,3.45
2017-03-04T03:04:32.718Z,3.4
2017-03-04T03:05:45.785Z,3.45
2017-03-04T03:06:58.841Z,3.45
2017-03-04T03:08:12.162Z,3.41
2017-03-04T03:09:24.847Z,3.46
2017-03-04T03:10:37.944Z,3.45
2017-03-04T03:11:51.016Z,3.52
2017-03-04T03:13:04.119Z,3.48
2017-03-04T03:14:17.196Z,3.49
2017-03-04T03:15:30.256Z,3.46
2017-03-04T03:16:43.299Z,3.52
2017-03-04T03:17:56.379Z,3.48
2017-03-04T03:19:09.440Z,3.55
2017-03-04T03:20:22.144Z,3.49
2017-03-04T03:21:35.217Z,3.53
2017-03-04T03:22:48.350Z,3.46
2017-03-04T03:24:01.686Z,3.52
2017-03-04T03:25:14.405Z,3.59
2017-03-04T03:26:27.437Z,3.53
2017-03-04T03:27:40.493Z,3.58
2017-03-04T03:28:53.579Z,3.58
2017-03-04T03:30:06.675Z,3.66
2017-03-04T03:31:19.725Z,3.64
2017-03-04T03:32:32.778Z,3.64
2017-03-04T03:33:45.841Z,3.7
2017-03-04T03:34:58.911Z,3.7
2017-03-04T03:36:12.066Z,3.66
2017-03-04T03:37:25.207Z,3.67
2017-03-04T03:38:37.908Z,3.66
2017-03-04T03:39:50.975Z,3.66
2017-03-04T03:41:04.024Z,3.66
2017-03-04T03:42:17.069Z,3.63
2017-03-04T03:43:29.741Z,3.64
2017-03-04T03:44:42.833Z,3.66
2017-03-04T03:45:55.904Z,3.61
2017-03-04T03:47:08.957Z,3.67
2017-03-04T03:48:22.038Z,3.61
2017-03-04T03:49:35.096Z,3.7
2017-03-04T03:50:48.163Z,3.67
2017-03-04T03:52:01.211Z,3.64
2017-03-04T03:53:14.288Z,3.67
2017-03-04T03:54:27.379Z,3.61
2017-03-04T03:55:40.471Z,3.66
2017-03-04T03:56:53.567Z,3.7
2017-03-04T03:58:06.591Z,3.59
2017-03-04T03:59:19.651Z,3.68
2017-03-04T04:00:32.355Z,3.7
2017-03-04T04:01:45.054Z,3.67
2017-03-04T04:02:58.105Z,3.64
2017-03-04T04:04:11.214Z,3.67
2017-03-04T04:05:24.263Z,3.63
2017-03-04T04:06:37.339Z,3.66
2017-03-04T04:07:50.452Z,3.63
2017-03-04T04:09:03.130Z,3.64
2017-03-04T04:10:16.197Z,3.61
2017-03-04T04:11:28.896Z,3.56
2017-03-04T04:12:41.998Z,3.55
2017-03-04T04:13:55.131Z,3.55
2017-03-04T04:15:07.805Z,3.53
2017-03-04T04:16:20.880Z,3.49
2017-03-04T04:17:33.926Z,3.5
2017-03-04T04:18:46.993Z,3.59
2017-03-04T04:20:00.038Z,3.55
2017-03-04T04:21:12.685Z,3.56
2017-03-04T04:22:25.752Z,3.49
2017-03-04T04:23:38.805Z,3.49
2017-03-04T04:24:51.851Z,3.5
2017-03-04T04:26:04.913Z,3.49
2017-03-04T04:27:17.614Z,3.52
2017-03-04T04:28:30.913Z,3.52
2017-03-04T04:29:44.023Z,3.48
2017-03-04T04:30:57.082Z,3.46
2017-03-04T04:32:10.149Z,3.49
2017-03-04T04:33:23.222Z,3.46
2017-03-04T04:34:36.267Z,3.45
2017-03-04T04:35:49.339Z,3.37
2017-03-04T04:37:02.381Z,3.41
2017-03-04T04:38:15.454Z,3.4
2017-03-04T04:39:28.148Z,3.45
2017-03-04T04:40:41.250Z,3.4
2017-03-04T04:41:54.342Z,3.43
2017-03-04T04:43:07.439Z,3.46
2017-03-04T04:44:20.490Z,3.4
2017-03-04T04:45:33.559Z,3.43
2017-03-04T04:46:46.606Z,3.41
2017-03-04T04:47:59.673Z,3.36
2017-03-04T04:49:12.767Z,3.4
2017-03-04T04:50:26.060Z,3.43
2017-03-04T04:51:39.137Z,3.41
2017-03-04T04:52:52.222Z,3.37
2017-03-04T04:54:04.922Z,3.36
2017-03-04T04:55:17.990Z,3.37
2017-03-04T04:56:31.094Z,3.36
2017-03-04T04:57:44.188Z,3.36
2017-03-04T04:58:57.263Z,3.37
2017-03-04T05:00:10.333Z,3.36
2017-03-04T05:01:23.405Z,3.27
2017-03-04T05:02:36.500Z,3.31
2017-03-04T05:03:49.564Z,3.34
2017-03-04T05:05:02.614Z,3.34
2017-03-04T05:06:15.306Z,3.4
2017-03-04T05:07:28.373Z,3.29
2017-03-04T05:08:41.459Z,3.26
2017-03-04T05:09:54.515Z,3.27
2017-03-04T05:11:07.840Z,3.27
2017-03-04T05:12:20.982Z,3.33
2017-03-04T05:13:34.058Z,3.29
2017-03-04T05:14:47.131Z,3.36
2017-03-04T05:16:00.194Z,3.26
2017-03-04T05:17:13.227Z,3.31
2017-03-04T05:18:26.291Z,3.29
2017-03-04T05:19:39.336Z,3.22
2017-03-04T05:20:52.407Z,3.27
2017-03-04T05:22:05.054Z,3.3
2017-03-04T05:23:18.130Z,3.22
2017-03-04T05:24:31.214Z,3.21
2017-03-04T05:25:44.268Z,3.22
2017-03-04T05:26:57.366Z,3.21
2017-03-04T05:28:10.485Z,3.22
2017-03-04T05:29:23.204Z,3.24
2017-03-04T05:30:36.266Z,3.24
2017-03-04T05:31:49.349Z,3.24
2017-03-04T05:33:02.449Z,3.26
2017-03-04T05:34:15.554Z,3.29
2017-03-04T05:35:28.236Z,3.24
2017-03-04T05:36:41.324Z,3.21
2017-03-04T05:37:54.399Z,3.13
2017-03-04T05:39:07.465Z,3.22
2017-03-04T05:40:20.519Z,3.15
2017-03-04T05:41:33.586Z,3.22
2017-03-04T05:42:46.661Z,3.24
2017-03-04T05:43:59.750Z,3.21
2017-03-04T05:45:12.843Z,3.09
2017-03-04T05:46:25.874Z,3.22
2017-03-04T05:47:38.988Z,3.22
2017-03-04T05:48:52.059Z,3.16
2017-03-04T05:50:05.111Z,3.18
2017-03-04T05:51:18.159Z,3.15
2017-03-04T05:52:31.242Z,3.11
2017-03-04T05:53:44.341Z,3.26
2017-03-04T05:54:57.441Z,3.19
2017-03-04T05:56:10.164Z,3.16
2017-03-04T05:57:22.458Z,3.21
2017-03-04T05:58:35.496Z,3.21
2017-03-04T05:59:48.171Z,3.31
2017-03-04T06:01:01.296Z,3.24
2017-03-04T06:02:14.369Z,3.33
2017-03-04T06:03:27.483Z,3.27
2017-03-04T06:04:40.187Z,3.29
2017-03-04T06:05:53.272Z,3.24
2017-03-04T06:07:06.354Z,3.36
2017-03-04T06:08:19.415Z,3.27
2017-03-04T06:09:32.095Z,3.26
2017-03-04T06:10:45.188Z,3.26
2017-03-04T06:11:58.214Z,3.24
2017-03-04T06:13:10.904Z,3.29
2017-03-04T06:14:23.980Z,3.24
2017-03-04T06:15:36.689Z,3.29
2017-03-04T06:16:49.742Z,3.3
2017-03-04T06:18:02.818Z,3.29
2017-03-04T06:19:15.914Z,3.26
2017-03-04T06:20:29.000Z,3.22
2017-03-04T06:21:42.330Z,3.29
2017-03-04T06:22:55.406Z,3.36
2017-03-04T06:24:08.093Z,3.34
2017-03-04T06:25:21.191Z,3.46
2017-03-04T06:26:34.260Z,3.34
2017-03-04T06:27:47.306Z,3.41
2017-03-04T06:29:00.404Z,3.45
2017-03-04T06:30:13.500Z,3.43
2017-03-04T06:31:26.572Z,3.5
2017-03-04T06:32:39.656Z,3.48
2017-03-04T06:33:52.739Z,3.5
2017-03-04T06:35:05.802Z,3.52
2017-03-04T06:36:18.844Z,3.52
2017-03-04T06:37:31.917Z,3.61
2017-03-04T06:38:44.997Z,3.58
2017-03-04T06:39:58.064Z,3.67
2017-03-04T06:41:10.356Z,3.64
2017-03-04T06:42:23.399Z,3.64
2017-03-04T06:43:36.520Z,3.73
2017-03-04T06:44:49.590Z,3.68
2017-03-04T06:46:02.672Z,3.82
2017-03-04T06:47:15.739Z,3.84
2017-03-04T06:48:28.414Z,3.92
2017-03-04T06:49:41.485Z,3.86
2017-03-04T06:50:54.545Z,3.92
2017-03-04T06:52:07.603Z,4.03
2017-03-04T06:53:20.626Z,3.99
2017-03-04T06:54:33.342Z,4.04
2017-03-04T06:55:45.653Z,4.14
2017-03-04T06:56:58.731Z,4.1
2017-03-04T06:58:11.778Z,4.27
2017-03-04T06:59:24.873Z,4.25
2017-03-04T07:00:37.950Z,4.21
2017-03-04T07:01:50.998Z,4.31
2017-03-04T07:03:03.715Z,4.39
2017-03-04T07:04:17.038Z,4.38
2017-03-04T07:05:29.348Z,4.45
2017-03-04T07:06:42.374Z,4.52
2017-03-04T07:07:55.450Z,4.49
2017-03-04T07:09:08.518Z,4.57
2017-03-04T07:10:21.585Z,4.6
2017-03-04T07:11:34.285Z,4.75
2017-03-04T07:12:47.355Z,4.78
2017-03-04T07:14:00.400Z,4.79
2017-03-04T07:15:13.474Z,4.89
2017-03-04T07:16:26.566Z,4.9
2017-03-04T07:17:39.592Z,4.94
2017-03-04T07:18:52.677Z,5.02
2017-03-04T07:20:05.732Z,5.02
2017-03-04T07:21:18.778Z,5.12
2017-03-04T07:22:31.824Z,5.2
2017-03-04T07:23:44.933Z,5.28
2017-03-04T07:24:57.986Z,5.34
2017-03-04T07:26:11.062Z,5.41
2017-03-04T07:27:24.104Z,5.36
2017-03-04T07:28:37.174Z,5.47
2017-03-04T07:29:50.241Z,5.59
2017-03-04T07:31:02.921Z,5.62
2017-03-04T07:32:16.215Z,5.58
2017-03-04T07:33:29.313Z,5.65
2017-03-04T07:34:42.432Z,5.65
2017-03-04T07:35:55.524Z,5.76
2017-03-04T07:37:08.865Z,5.8
2017-03-04T07:38:21.936Z,5.9
2017-03-04T07:39:35.004Z,5.88
2017-03-04T07:40:48.054Z,5.91
2017-03-04T07:42:01.110Z,6.01
2017-03-04T07:43:13.775Z,6.06
2017-03-04T07:44:26.850Z,6.22
2017-03-04T07:45:39.936Z,6.19
2017-03-04T07:46:52.995Z,6.31
2017-03-04T07:48:06.086Z,6.31
2017-03-04T07:49:19.156Z,6.34
2017-03-04T07:50:32.203Z,6.35
2017-03-04T07:51:45.272Z,6.47
2017-03-04T07:52:58.345Z,6.46
2017-03-04T07:54:11.033Z,6.52
2017-03-04T07:55:24.111Z,6.54
2017-03-04T07:56:37.226Z,6.59
2017-03-04T07:57:50.292Z,6.74
2017-03-04T07:59:02.991Z,6.77
2017-03-04T08:00:16.072Z,6.78
2017-03-04T08:01:29.140Z,6.85
2017-03-04T08:02:41.851Z,6.92
2017-03-04T08:03:54.924Z,7.01
2017-03-04T08:05:07.996Z,7.04
2017-03-04T08:06:21.092Z,7.05
2017-03-04T08:07:34.175Z,7.11
2017-03-04T08:08:47.312Z,7.23
2017-03-04T08:10:00.434Z,7.29
2017-03-04T08:11:13.121Z,7.44
2017-03-04T08:12:26.192Z,7.43
2017-03-04T08:13:39.221Z,7.43
2017-03-04T08:14:52.343Z,7.51
2017-03-04T08:16:05.430Z,7.58
2017-03-04T08:17:18.489Z,7.67
2017-03-04T08:18:31.579Z,7.77
2017-03-04T08:19:44.692Z,7.75
2017-03-04T08:20:57.788Z,7.83
2017-03-04T08:22:10.910Z,8.03
2017-03-04T08:23:23.609Z,8.02
2017-03-04T08:24:36.701Z,8.17
2017-03-04T08:25:50.009Z,8.27
2017-03-04T08:27:02.719Z,8.31
2017-03-04T08:28:15.825Z,8.44
2017-03-04T08:29:28.892Z,8.5
2017-03-04T08:30:41.964Z,8.52
2017-03-04T08:31:55.000Z,8.53
2017-03-04T08:33:07.683Z,8.61
2017-03-04T08:34:20.757Z,8.77
2017-03-04T08:35:33.876Z,8.77
2017-03-04T08:36:46.934Z,8.89
2017-03-04T08:38:00.034Z,8.96
2017-03-04T08:39:12.738Z,8.97
2017-03-04T08:40:25.832Z,9.05
2017-03-04T08:41:38.898Z,9.15
2017-03-04T08:42:51.975Z,9.18
2017-03-04T08:44:05.048Z,9.26
2017-03-04T08:45:17.743Z,9.39
2017-03-04T08:46:30.435Z,9.47
2017-03-04T08:47:43.514Z,9.48
2017-03-04T08:48:56.582Z,9.58
2017-03-04T08:50:09.278Z,9.72
2017-03-04T08:51:22.364Z,9.72
2017-03-04T08:52:35.443Z,9.85
2017-03-04T08:53:48.535Z,9.94
2017-03-04T08:55:01.610Z,9.99
2017-03-04T08:56:14.685Z,10.05
2017-03-04T08:57:27.377Z,10.09
2017-03-04T08:58:40.465Z,10.18
2017-03-04T08:59:53.570Z,10.25
2017-03-04T09:01:06.289Z,10.34
2017-03-04T09:02:19.377Z,10.33
2017-03-04T09:03:32.752Z,10.43
2017-03-04T09:04:45.827Z,10.51
2017-03-04T09:05:58.897Z,10.61
2017-03-04T09:07:11.583Z,10.76
2017-03-04T09:08:24.655Z,10.75
2017-03-04T09:09:37.336Z,10.8
2017-03-04T09:10:50.405Z,10.86
2017-03-04T09:12:03.129Z,10.89
2017-03-04T09:13:16.194Z,10.98
2017-03-04T09:14:29.269Z,11.01
2017-03-04T09:15:42.361Z,11.15
2017-03-04T09:16:55.428Z,11.2
2017-03-04T09:18:08.532Z,11.31
2017-03-04T09:19:21.594Z,11.35
2017-03-04T09:20:34.952Z,11.41
2017-03-04T09:21:48.068Z,11.43
2017-03-04T09:23:00.746Z,11.45
2017-03-04T09:24:13.835Z,11.62
2017-03-04T09:25:26.881Z,11.71
2017-03-04T09:26:39.582Z,11.71
2017-03-04T09:27:52.637Z,11.78
2017-03-04T09:29:05.759Z,11.78
2017-03-04T09:30:18.830Z,11.88
2017-03-04T09:31:31.508Z,11.89
2017-03-04T09:32:44.579Z,11.97
2017-03-04T09:33:57.650Z,11.86
2017-03-04T09:35:10.742Z,11.99
2017-03-04T09:36:23.822Z,12
2017-03-04T09:37:36.543Z,12.11
2017-03-04T09:38:49.684Z,12.07
2017-03-04T09:40:02.757Z,12.18
2017-03-04T09:41:15.496Z,12.21
2017-03-04T09:42:28.575Z,12.28
2017-03-04T09:43:41.626Z,12.2
2017-03-04T09:44:54.687Z,12.28
2017-03-04T09:46:07.763Z,12.32
2017-03-04T09:47:20.867Z,12.33
2017-03-04T09:48:33.593Z,12.4
2017-03-04T09:49:46.655Z,12.48
2017-03-04T09:50:59.750Z,12.44
2017-03-04T09:52:12.842Z,12.39
2017-03-04T09:53:25.964Z,12.45
2017-03-04T09:54:38.647Z,12.58
2017-03-04T09:55:51.729Z,12.55
2017-03-04T09:57:04.820Z,12.72
2017-03-04T09:58:18.148Z,12.63
2017-03-04T09:59:31.238Z,12.65
2017-03-04T10:00:44.311Z,12.7
2017-03-04T10:01:57.355Z,12.78
2017-03-04T10:03:10.444Z,12.8
2017-03-04T10:04:23.481Z,12.72
2017-03-04T10:05:36.568Z,12.76
2017-03-04T10:06:49.238Z,12.78
2017-03-04T10:08:02.310Z,12.75
2017-03-04T10:09:15.411Z,12.83
2017-03-04T10:10:28.521Z,12.83
2017-03-04T10:11:41.617Z,12.83
2017-03-04T10:12:54.747Z,12.87
2017-03-04T10:14:07.830Z,12.9
2017-03-04T10:15:20.894Z,12.9
2017-03-04T10:16:33.583Z,12.88
2017-03-04T10:17:46.651Z,12.99
2017-03-04T10:18:59.719Z,12.98
2017-03-04T10:20:12.850Z,13.08
2017-03-04T10:21:25.963Z,13.03
2017-03-04T10:22:38.638Z,13.08
2017-03-04T10:23:51.754Z,13.12
2017-03-04T10:25:04.423Z,13.11
2017-03-04T10:26:17.525Z,13.03
2017-03-04T10:27:30.598Z,13.13
2017-03-04T10:28:43.268Z,13.16
2017-03-04T10:29:56.391Z,13.17
2017-03-04T10:31:09.456Z,13.21
2017-03-04T10:32:22.152Z,13.21
2017-03-04T10:33:34.844Z,13.21
2017-03-04T10:34:47.974Z,13.19
2017-03-04T10:36:01.046Z,13.19
2017-03-04T10:37:14.111Z,13.24
2017-03-04T10:38:27.177Z,13.21
2017-03-04T10:39:39.502Z,13.27
2017-03-04T10:40:52.176Z,13.21
2017-03-04T10:42:05.550Z,13.24
2017-03-04T10:43:18.658Z,13.27
2017-03-04T10:44:31.707Z,13.33
2017-03-04T10:45:44.812Z,13.39
2017-03-04T10:46:57.873Z,13.39
2017-03-04T10:48:10.995Z,13.43
2017-03-04T10:49:24.069Z,13.49
2017-03-04T10:50:36.789Z,13.58
2017-03-04T10:51:49.864Z,13.5
2017-03-04T10:53:02.557Z,13.58
2017-03-04T10:54:15.606Z,13.5
2017-03-04T10:55:28.694Z,13.75
2017-03-04T10:56:41.825Z,13.62
2017-03-04T10:57:54.915Z,13.64
2017-03-04T10:59:07.970Z,13.61
2017-03-04T11:00:21.107Z,13.76
2017-03-04T11:01:34.196Z,13.82
2017-03-04T11:02:47.273Z,13.73
2017-03-04T11:04:00.374Z,13.78
2017-03-04T11:05:13.073Z,13.83
2017-03-04T11:06:26.163Z,13.91
2017-03-04T11:07:39.236Z,13.86
2017-03-04T11:08:52.350Z,13.86
2017-03-04T11:10:05.470Z,13.87
2017-03-04T11:11:18.574Z,13.87
2017-03-04T11:12:31.309Z,13.91
2017-03-04T11:13:44.395Z,13.98
2017-03-04T11:14:57.474Z,14.05
2017-03-04T11:16:10.539Z,14.01
2017-03-04T11:17:23.631Z,14.04
2017-03-04T11:18:36.348Z,14.18
2017-03-04T11:19:49.026Z,14.12
2017-03-04T11:21:02.091Z,14.18
2017-03-04T11:22:14.808Z,14.19
2017-03-04T11:23:27.948Z,14.31
2017-03-04T11:24:41.041Z,14.19
2017-03-04T11:25:54.090Z,14.36
2017-03-04T11:27:07.169Z,14.31
2017-03-04T11:28:19.883Z,14.38
2017-03-04T11:29:32.966Z,14.44
2017-03-04T11:30:46.022Z,14.49
2017-03-04T11:31:58.719Z,14.49
2017-03-04T11:33:11.798Z,14.53
2017-03-04T11:34:24.887Z,14.51
2017-03-04T11:35:37.594Z,14.61
2017-03-04T11:36:50.258Z,14.59
2017-03-04T11:38:03.359Z,14.66
2017-03-04T11:39:16.454Z,14.68
2017-03-04T11:40:29.571Z,14.68
2017-03-04T11:41:42.642Z,14.81
2017-03-04T11:42:55.683Z,14.77
2017-03-04T11:44:08.408Z,14.85
2017-03-04T11:45:21.482Z,14.89
2017-03-04T11:46:34.574Z,14.82
2017-03-04T11:47:47.326Z,14.93
2017-03-04T11:49:00.410Z,14.97
2017-03-04T11:50:13.446Z,14.96
2017-03-04T11:51:26.564Z,15
2017-03-04T11:52:39.658Z,14.99
2017-03-04T11:53:52.755Z,15.08
2017-03-04T11:55:05.500Z,15.14
2017-03-04T11:56:18.619Z,15.05
2017-03-04T11:57:31.662Z,15.15
2017-03-04T11:58:44.338Z,15.15
2017-03-04T11:59:57.007Z,15.36
2017-03-04T12:01:10.078Z,15.32
2017-03-04T12:02:23.154Z,15.39
2017-03-04T12:03:36.232Z,15.44
2017-03-04T12:04:48.934Z,15.52
2017-03-04T12:06:02.061Z,15.5
2017-03-04T12:07:14.384Z,15.59
2017-03-04T12:08:27.471Z,15.66
2017-03-04T12:09:40.546Z,15.66
2017-03-04T12:10:53.267Z,15.65
2017-03-04T12:12:06.363Z,15.72
2017-03-04T12:13:19.444Z,15.73
2017-03-04T12:14:32.512Z,15.83
2017-03-04T12:15:45.578Z,15.94
2017-03-04T12:16:58.675Z,15.98
2017-03-04T12:18:11.772Z,15.84
2017-03-04T12:19:24.865Z,15.94
2017-03-04T12:20:37.788Z,15.98
2017-03-04T12:21:50.857Z,16.03
2017-03-04T12:23:03.978Z,16.03
2017-03-04T12:24:16.688Z,16.03
2017-03-04T12:25:29.759Z,16.03
2017-03-04T12:26:42.813Z,16.13
2017-03-04T12:27:55.859Z,16.13
2017-03-04T12:29:08.905Z,16.16
2017-03-04T12:30:21.601Z,16.12
2017-03-04T12:31:34.677Z,16.17
2017-03-04T12:32:47.743Z,16.21
2017-03-04T12:34:00.835Z,16.22
2017-03-04T12:35:13.965Z,16.18
2017-03-04T12:36:27.055Z,16.29
2017-03-04T12:37:40.156Z,16.26
2017-03-04T12:38:53.207Z,16.18
2017-03-04T12:40:06.346Z,16.18
2017-03-04T12:41:19.422Z,16.31
2017-03-04T12:42:32.513Z,16.31
2017-03-04T12:43:45.202Z,16.24
2017-03-04T12:44:58.279Z,16.26
2017-03-04T12:46:10.951Z,16.36
2017-03-04T12:47:23.646Z,16.36
2017-03-04T12:48:36.688Z,16.39
2017-03-04T12:49:49.359Z,16.4
2017-03-04T12:51:02.435Z,16.39
2017-03-04T12:52:15.519Z,16.34
2017-03-04T12:53:28.619Z,16.39
2017-03-04T12:54:41.346Z,16.44
2017-03-04T12:55:54.061Z,16.47
2017-03-04T12:57:07.135Z,16.41
2017-03-04T12:58:20.231Z,16.51
2017-03-04T12:59:32.909Z,16.51
2017-03-04T13:00:46.002Z,16.54
2017-03-04T13:01:59.069Z,16.49
2017-03-04T13:03:12.161Z,16.55
2017-03-04T13:04:25.460Z,16.65
2017-03-04T13:05:38.587Z,16.62
2017-03-04T13:06:51.694Z,16.62
2017-03-04T13:08:04.779Z,16.61
2017-03-04T13:09:17.512Z,16.62
2017-03-04T13:10:30.615Z,16.72
2017-03-04T13:11:43.691Z,16.76
2017-03-04T13:12:56.753Z,16.77
2017-03-04T13:14:09.835Z,16.73
2017-03-04T13:15:22.927Z,16.79
2017-03-04T13:16:35.594Z,16.73
2017-03-04T13:17:48.669Z,16.84
2017-03-04T13:19:01.742Z,16.77
2017-03-04T13:20:14.785Z,16.87
2017-03-04T13:21:27.887Z,16.87
2017-03-04T13:22:40.582Z,16.91
2017-03-04T13:23:53.291Z,16.89
2017-03-04T13:25:05.997Z,16.86
2017-03-04T13:26:19.061Z,16.87
2017-03-04T13:27:32.160Z,16.86
2017-03-04T13:28:44.845Z,16.84
2017-03-04T13:29:57.923Z,16.87
2017-03-04T13:31:10.991Z,16.82
2017-03-04T13:32:24.068Z,16.82
2017-03-04T13:33:37.179Z,16.82
2017-03-04T13:34:50.233Z,16.79
2017-03-04T13:36:03.303Z,16.76
2017-03-04T13:37:16.374Z,16.74
2017-03-04T13:38:29.449Z,16.77
2017-03-04T13:39:42.508Z,16.73
2017-03-04T13:40:55.596Z,16.76
2017-03-04T13:42:08.937Z,16.72
2017-03-04T13:43:22.045Z,16.79
2017-03-04T13:44:35.099Z,16.76
2017-03-04T13:45:48.187Z,16.69
2017-03-04T13:47:01.309Z,16.69
2017-03-04T13:48:14.394Z,16.79
2017-03-04T13:49:27.103Z,16.77
2017-03-04T13:50:40.188Z,16.72
2017-03-04T13:51:52.891Z,16.72
2017-03-04T13:53:05.966Z,16.73
2017-03-04T13:54:19.021Z,16.77
2017-03-04T13:55:32.086Z,16.72
2017-03-04T13:56:44.776Z,16.72
2017-03-04T13:57:58.103Z,16.62
2017-03-04T13:59:10.800Z,16.65
2017-03-04T14:00:23.523Z,16.57
2017-03-04T14:01:36.245Z,16.57
2017-03-04T14:02:48.915Z,16.54
2017-03-04T14:04:02.006Z,16.57
2017-03-04T14:05:14.704Z,16.54
2017-03-04T14:06:27.794Z,16.54
2017-03-04T14:07:40.913Z,16.55
2017-03-04T14:08:53.995Z,16.51
2017-03-04T14:10:07.113Z,16.49
2017-03-04T14:11:20.187Z,16.46
2017-03-04T14:12:33.260Z,16.54
2017-03-04T14:13:46.004Z,16.57
2017-03-04T14:14:59.104Z,16.55
2017-03-04T14:16:12.226Z,16.54
2017-03-04T14:17:25.288Z,16.54
2017-03-04T14:18:38.384Z,16.61
2017-03-04T14:19:51.483Z,16.59
2017-03-04T14:21:04.526Z,16.55
2017-03-04T14:22:17.217Z,16.51
2017-03-04T14:23:30.267Z,16.54
2017-03-04T14:24:43.338Z,16.54
2017-03-04T14:25:56.419Z,16.54
2017-03-04T14:27:09.502Z,16.57
2017-03-04T14:28:22.577Z,16.54
2017-03-04T14:29:35.655Z,16.55
2017-03-04T14:30:48.697Z,16.59
2017-03-04T14:32:01.805Z,16.61
2017-03-04T14:33:14.518Z,16.57
2017-03-04T14:34:27.258Z,16.61
2017-03-04T14:35:40.329Z,16.65
2017-03-04T14:36:53.423Z,16.64
2017-03-04T14:38:06.514Z,16.61
2017-03-04T14:39:19.214Z,16.64
2017-03-04T14:40:31.902Z,16.62
2017-03-04T14:41:45.006Z,16.58
2017-03-04T14:42:58.105Z,16.55
2017-03-04T14:44:11.189Z,16.55
2017-03-04T14:45:24.293Z,16.57
2017-03-04T14:46:37.371Z,16.58
2017-03-04T14:47:50.489Z,16.46
2017-03-04T14:49:03.560Z,16.44
2017-03-04T14:50:17.104Z,16.44
2017-03-04T14:51:30.232Z,16.34
2017-03-04T14:52:43.323Z,16.34
2017-03-04T14:53:56.364Z,16.36
2017-03-04T14:55:09.481Z,16.4
2017-03-04T14:56:22.534Z,16.36
2017-03-04T14:57:35.606Z,16.37
2017-03-04T14:58:48.702Z,16.26
2017-03-04T15:00:01.776Z,16.22
2017-03-04T15:01:14.865Z,16.18
2017-03-04T15:02:27.943Z,16.1
2017-03-04T15:03:41.039Z,16.16
2017-03-04T15:04:54.174Z,16.12
2017-03-04T15:06:07.254Z,16.02
2017-03-04T15:07:19.965Z,16
2017-03-04T15:08:33.015Z,16.03
2017-03-04T15:09:46.094Z,15.92
2017-03-04T15:10:59.165Z,15.92
2017-03-04T15:12:11.847Z,15.87
2017-03-04T15:13:24.978Z,15.88
2017-03-04T15:14:37.722Z,15.78
2017-03-04T15:15:50.807Z,15.75
2017-03-04T15:17:03.882Z,15.8
2017-03-04T15:18:16.999Z,15.69
2017-03-04T15:19:30.102Z,15.67
2017-03-04T15:20:43.201Z,15.67
2017-03-04T15:21:56.262Z,15.66
2017-03-04T15:23:09.018Z,15.63
2017-03-04T15:24:21.754Z,15.62
2017-03-04T15:25:34.842Z,15.54
2017-03-04T15:26:47.906Z,15.59
2017-03-04T15:28:00.999Z,15.45
2017-03-04T15:29:14.073Z,15.43
2017-03-04T15:30:27.168Z,15.45
2017-03-04T15:31:39.865Z,15.43
2017-03-04T15:32:52.561Z,15.32
2017-03-04T15:34:05.628Z,15.39
2017-03-04T15:35:18.703Z,15.35
2017-03-04T15:36:31.775Z,15.29
2017-03-04T15:37:44.857Z,15.25
2017-03-04T15:38:57.180Z,15.3
2017-03-04T15:40:09.857Z,15.29
2017-03-04T15:41:22.905Z,15.23
2017-03-04T15:42:35.992Z,15.1
2017-03-04T15:43:49.049Z,15.05
2017-03-04T15:45:02.138Z,15.12
2017-03-04T15:46:14.833Z,15.07
2017-03-04T15:47:27.933Z,15.07
2017-03-04T15:48:41.029Z,15.04
2017-03-04T15:49:54.121Z,15
2017-03-04T15:51:07.171Z,14.99
2017-03-04T15:52:20.240Z,14.97
2017-03-04T15:53:33.365Z,14.99
2017-03-04T15:54:46.437Z,14.87
2017-03-04T15:55:59.524Z,14.86
2017-03-04T15:57:12.645Z,14.82
2017-03-04T15:58:25.746Z,14.78
2017-03-04T15:59:38.822Z,14.74
2017-03-04T16:00:51.534Z,14.62